Time;durP1;ratioP1;P1;durP2;ratioP2;P2;SDS_P1;SDS_P2;PMS_P1;PMS_P2;Temp;Humidity;BMP_temperature;BMP_pressure;BME280_temperature;BME280_humidity;BME280_pressure;Samples;Min_cycle;Max_cycle;Signal;HPM_P1;HPM_P2
2022/03/20 00:00:37;;;;;;;6.93;6.13;;;5.80;85.10;;;;;;6121584;23;98510;-71
2022/03/20 00:03:09;;;;;;;8.32;6.28;;;5.80;85.10;;;;;;6095641;23;98961;-71
2022/03/20 00:05:39;;;;;;;12.40;6.38;;;5.80;85.00;;;;;;6121133;23;99716;-71
2022/03/20 00:08:11;;;;;;;8.45;6.35;;;5.70;85.10;;;;;;6070001;23;101564;-71
2022/03/20 00:10:42;;;;;;;9.35;6.20;;;5.70;85.10;;;;;;6096455;23;98554;-71
2022/03/20 00:13:10;;;;;;;10.15;5.68;;;5.70;85.40;;;;;;6122462;23;97668;-71
2022/03/20 00:15:42;;;;;;;10.52;6.47;;;5.60;85.50;;;;;;6094335;23;99317;-71
2022/03/20 00:18:11;;;;;;;7.20;5.65;;;5.60;85.50;;;;;;6121589;23;99288;-71
2022/03/20 00:20:40;;;;;;;9.02;5.60;;;5.60;85.60;;;;;;6094884;23;99322;-71
2022/03/20 00:23:12;;;;;;;7.07;5.75;;;5.60;85.70;;;;;;6121824;23;98462;-71
2022/03/20 00:25:42;;;;;;;8.00;6.20;;;5.50;86.00;;;;;;6121053;23;99179;-71
2022/03/20 00:28:11;;;;;;;6.93;5.80;;;5.50;87.00;;;;;;6121155;23;99010;-71
2022/03/20 00:30:38;;;;;;;6.82;6.05;;;5.50;86.40;;;;;;6121006;23;100578;-71
2022/03/20 00:33:05;;;;;;;8.38;6.22;;;5.40;86.40;;;;;;6095418;23;98458;-71
2022/03/20 00:35:32;;;;;;;8.93;6.70;;;5.40;86.40;;;;;;6094503;23;99193;-71
2022/03/20 00:38:04;;;;;;;10.40;7.20;;;5.40;86.50;;;;;;6096149;23;98869;-71
2022/03/20 00:40:32;;;;;;;10.50;6.63;;;5.40;86.70;;;;;;6121713;23;98411;-73
2022/03/20 00:42:59;;;;;;;9.13;6.25;;;5.30;86.70;;;;;;6095978;23;99032;-73
2022/03/20 00:45:28;;;;;;;8.80;6.32;;;5.30;86.80;;;;;;6094458;23;100123;-73
2022/03/20 00:47:55;;;;;;;8.15;5.88;;;5.20;86.90;;;;;;6095297;23;103707;-73
2022/03/20 00:50:23;;;;;;;8.75;6.35;;;5.20;87.30;;;;;;6070923;23;98549;-73
2022/03/20 00:52:50;;;;;;;10.13;6.80;;;5.10;87.60;;;;;;6121185;23;99720;-73
2022/03/20 00:55:17;;;;;;;10.50;6.82;;;5.10;87.60;;;;;;6121512;23;99235;-73
2022/03/20 00:57:44;;;;;;;11.23;7.22;;;5.10;87.70;;;;;;6120981;23;99034;-73
2022/03/20 01:00:12;;;;;;;8.63;6.53;;;5.10;87.90;;;;;;6095622;23;98493;-73
2022/03/20 01:02:40;;;;;;;12.00;6.60;;;5.00;88.10;;;;;;6095369;23;97774;-73
2022/03/20 01:05:08;;;;;;;8.55;6.53;;;5.00;88.10;;;;;;6121349;23;99252;-73
2022/03/20 01:07:42;;;;;;;14.10;6.88;;;5.00;88.20;;;;;;6094342;23;101699;-73
2022/03/20 01:10:11;;;;;;;10.02;6.80;;;5.00;88.40;;;;;;6121617;23;99114;-73
2022/03/20 01:12:39;;;;;;;16.92;6.50;;;4.90;88.40;;;;;;6121466;23;98505;-73
2022/03/20 01:15:08;;;;;;;11.70;7.18;;;4.90;88.40;;;;;;6121151;23;99225;-73
2022/03/20 01:17:35;;;;;;;11.45;6.60;;;4.90;88.40;;;;;;6120577;23;106600;-73
2022/03/20 01:20:03;;;;;;;9.63;6.40;;;4.90;88.30;;;;;;6121862;23;98354;-73
2022/03/20 01:22:30;;;;;;;8.10;6.38;;;4.90;88.30;;;;;;6095384;23;98493;-73
2022/03/20 01:24:57;;;;;;;9.80;6.97;;;4.90;88.30;;;;;;6120956;23;99164;-73
2022/03/20 01:27:24;;;;;;;10.18;6.53;;;4.90;88.30;;;;;;6120655;23;98914;-73
2022/03/20 01:29:51;;;;;;;10.57;6.68;;;4.90;88.40;;;;;;6122889;23;98825;-73
2022/03/20 01:32:18;;;;;;;10.40;6.85;;;4.90;88.30;;;;;;6122807;23;98516;-73
2022/03/20 01:34:47;;;;;;;10.55;6.03;;;4.90;88.30;;;;;;6121588;23;99926;-73
2022/03/20 01:37:14;;;;;;;11.95;7.40;;;4.90;88.50;;;;;;6122319;23;99627;-73
2022/03/20 01:39:41;;;;;;;11.00;6.70;;;4.90;88.30;;;;;;6122054;23;99405;-73
2022/03/20 01:42:08;;;;;;;9.45;6.57;;;4.80;88.20;;;;;;6095944;23;98480;-73
2022/03/20 01:44:36;;;;;;;14.40;7.75;;;4.90;88.20;;;;;;6095590;23;101969;-73
2022/03/20 01:47:08;;;;;;;10.63;7.40;;;4.80;88.10;;;;;;6095977;23;101669;-73
2022/03/20 01:49:35;;;;;;;12.77;7.35;;;4.80;88.10;;;;;;6122988;23;98534;-73
2022/03/20 01:52:13;;;;;;;10.20;7.18;;;4.80;88.00;;;;;;6097210;23;97863;-73
2022/03/20 01:54:44;;;;;;;13.40;7.60;;;4.80;88.00;;;;;;6122319;23;98993;-73
2022/03/20 01:57:16;;;;;;;12.13;6.97;;;4.80;88.00;;;;;;6122658;23;98990;-73
2022/03/20 01:59:44;;;;;;;11.30;7.28;;;4.80;88.00;;;;;;6095612;23;99163;-73
2022/03/20 02:02:12;;;;;;;10.20;8.23;;;4.80;88.00;;;;;;6096686;23;98529;-73
2022/03/20 02:04:40;;;;;;;9.55;7.70;;;4.70;88.50;;;;;;6095517;23;102119;-73
2022/03/20 02:07:09;;;;;;;10.88;7.80;;;4.70;87.90;;;;;;6095691;23;100167;-73
2022/03/20 02:09:37;;;;;;;8.88;6.85;;;4.70;87.80;;;;;;6095766;23;98506;-73
2022/03/20 02:12:04;;;;;;;13.73;7.53;;;4.70;87.90;;;;;;6122249;23;101793;-73
2022/03/20 02:14:33;;;;;;;14.98;7.38;;;4.70;87.90;;;;;;6122236;23;99375;-73
2022/03/20 02:17:01;;;;;;;13.52;8.00;;;4.70;87.80;;;;;;6122691;23;99063;-73
2022/03/20 02:19:30;;;;;;;11.00;8.00;;;4.60;87.80;;;;;;6122734;23;98441;-73
2022/03/20 02:21:57;;;;;;;8.13;6.03;;;4.60;87.90;;;;;;6096542;23;98571;-73
2022/03/20 02:24:36;;;;;;;14.05;8.45;;;4.60;87.90;;;;;;6121851;23;100335;-73
2022/03/20 02:27:25;;;;;;;12.73;6.75;;;4.50;88.00;;;;;;6071208;23;102728;-73
2022/03/20 02:29:58;;;;;;;12.77;8.20;;;4.50;88.10;;;;;;6072298;23;98548;-73
2022/03/20 02:32:31;;;;;;;11.75;7.57;;;4.50;88.20;;;;;;6122914;23;98447;-73
2022/03/20 02:35:01;;;;;;;16.08;8.80;;;4.40;88.30;;;;;;6122170;23;99302;-73
2022/03/20 02:37:29;;;;;;;13.95;9.20;;;4.40;88.60;;;;;;6122260;23;98971;-73
2022/03/20 02:39:58;;;;;;;10.35;7.47;;;4.40;88.60;;;;;;6095692;23;98609;-73
2022/03/20 02:42:27;;;;;;;11.75;8.23;;;4.30;89.10;;;;;;6122730;23;97728;-70
2022/03/20 02:45:05;;;;;;;15.85;9.18;;;4.30;88.60;;;;;;6121060;23;99189;-70
2022/03/20 02:47:35;;;;;;;12.23;8.00;;;4.30;88.80;;;;;;6121793;23;99002;-71
2022/03/20 02:50:11;;;;;;;14.68;8.35;;;4.20;88.80;;;;;;6095034;23;101075;-70
2022/03/20 02:53:13;;;;;;;11.07;8.25;;;4.20;88.80;;;;;;6071431;23;98483;-70
2022/03/20 02:55:44;;;;;;;11.73;8.70;;;4.10;89.20;;;;;;6065270;23;99276;-70
2022/03/20 02:58:17;;;;;;;12.95;8.65;;;4.10;89.30;;;;;;6121743;23;98921;-70
2022/03/20 03:00:45;;;;;;;12.52;9.75;;;4.10;89.20;;;;;;6071386;23;98940;-70
2022/03/20 03:03:13;;;;;;;13.25;8.30;;;4.00;89.30;;;;;;6071031;23;98525;-70
2022/03/20 03:05:42;;;;;;;10.98;8.75;;;4.00;89.40;;;;;;6095431;23;99408;-70
2022/03/20 03:10:55;;;;;;;12.55;8.00;;;3.90;89.60;;;;;;6099584;23;98409;-71
2022/03/20 03:13:40;;;;;;;13.38;9.25;;;3.80;89.60;;;;;;6096328;23;98584;-70
2022/03/20 03:16:13;;;;;;;11.82;8.73;;;3.80;89.60;;;;;;6093802;23;100981;-71
2022/03/20 03:18:47;;;;;;;13.55;9.02;;;3.80;89.70;;;;;;6121702;23;99799;-70
2022/03/20 03:21:17;;;;;;;12.60;10.13;;;3.80;89.80;;;;;;6095208;23;98579;-70
2022/03/20 03:23:44;;;;;;;14.25;9.70;;;3.80;89.70;;;;;;6121345;23;98449;-70
2022/03/20 03:26:12;;;;;;;14.82;10.90;;;3.70;89.60;;;;;;6094292;23;102049;-71
2022/03/20 03:28:40;;;;;;;19.08;10.10;;;3.80;89.50;;;;;;6094214;23;106542;-71
2022/03/20 03:31:11;;;;;;;14.40;9.55;;;3.80;89.30;;;;;;6094734;23;98593;-70
2022/03/20 03:35:41;;;;;;;17.40;11.13;;;3.70;89.20;;;;;;6096342;23;97827;-70
2022/03/20 03:36:28;;;;;;;13.65;9.75;;;3.70;89.30;;;;;;6120883;23;99305;-71
2022/03/20 03:38:55;;;;;;;11.48;8.75;;;3.70;89.20;;;;;;6121485;23;101575;-73
2022/03/20 03:41:24;;;;;;;14.13;8.73;;;3.70;89.00;;;;;;6121952;23;99224;-73
2022/03/20 03:43:51;;;;;;;13.88;10.30;;;3.60;89.00;;;;;;6096239;23;98547;-73
2022/03/20 03:46:18;;;;;;;13.50;8.55;;;3.70;89.00;;;;;;6094361;23;99297;-72
2022/03/20 03:48:45;;;;;;;14.38;9.02;;;3.60;88.70;;;;;;6071352;23;99044;-73
2022/03/20 03:51:11;;;;;;;19.00;10.05;;;3.60;88.80;;;;;;6121954;23;98374;-73
2022/03/20 03:53:38;;;;;;;15.43;10.45;;;3.60;88.80;;;;;;6121652;23;98414;-73
2022/03/20 03:56:06;;;;;;;17.60;10.32;;;3.60;88.50;;;;;;6094748;23;99942;-73
2022/03/20 03:58:33;;;;;;;14.95;9.80;;;3.60;88.20;;;;;;6121456;23;98789;-73
2022/03/20 04:01:00;;;;;;;16.33;12.38;;;3.60;88.20;;;;;;6095723;23;98523;-73
2022/03/20 04:03:27;;;;;;;18.00;11.05;;;3.60;88.00;;;;;;6094616;23;98505;-73
2022/03/20 04:06:02;;;;;;;17.02;11.90;;;3.60;87.90;;;;;;6120099;23;100012;-73
2022/03/20 04:08:29;;;;;;;18.27;11.40;;;3.60;87.80;;;;;;6120993;23;99797;-73
2022/03/20 04:10:58;;;;;;;18.10;12.02;;;3.60;87.60;;;;;;6095572;23;98492;-73
2022/03/20 04:13:25;;;;;;;18.23;12.48;;;3.60;87.50;;;;;;6121463;23;98444;-73
2022/03/20 04:15:52;;;;;;;18.92;11.82;;;3.60;87.40;;;;;;6095078;23;99158;-73
2022/03/20 04:18:20;;;;;;;16.90;12.48;;;3.60;87.10;;;;;;6070033;23;101542;-73
2022/03/20 04:20:50;;;;;;;17.92;12.55;;;3.60;87.00;;;;;;6121336;23;98484;-73
2022/03/20 04:26:02;;;;;;;17.50;11.98;;;3.60;86.50;;;;;;6120826;23;99624;-73
2022/03/20 04:28:29;;;;;;;16.50;11.45;;;3.60;86.60;;;;;;6094494;23;98981;-73
2022/03/20 04:30:56;;;;;;;18.17;12.68;;;3.50;86.30;;;;;;6094404;23;99388;-73
2022/03/20 04:33:25;;;;;;;16.80;11.50;;;3.60;86.40;;;;;;6094748;23;99491;-73
2022/03/20 04:35:52;;;;;;;14.52;10.63;;;3.50;86.20;;;;;;6094000;23;101763;-73
2022/03/20 04:38:21;;;;;;;23.42;13.23;;;3.50;86.10;;;;;;6120824;23;98891;-73
2022/03/20 04:40:49;;;;;;;19.38;10.55;;;3.50;86.10;;;;;;6121141;23;98665;-73
2022/03/20 04:43:17;;;;;;;19.50;13.00;;;3.50;85.90;;;;;;6094356;23;98888;-73
2022/03/20 04:45:44;;;;;;;18.70;13.20;;;3.50;85.80;;;;;;6120466;23;99662;-73
2022/03/20 04:59:13;;;;;;;18.25;13.02;;;3.50;85.10;;;;;;6120394;23;99653;-70
2022/03/20 05:01:40;;;;;;;18.13;12.40;;;3.50;85.00;;;;;;6121586;23;98518;-71
2022/03/20 05:04:07;;;;;;;22.85;15.23;;;3.50;85.00;;;;;;6124306;23;98406;-72
2022/03/20 05:06:34;;;;;;;18.63;13.82;;;3.50;84.70;;;;;;6096997;23;101992;-72
2022/03/20 05:14:32;;;;;;;19.90;13.15;;;3.40;84.60;;;;;;6124743;23;97807;-72
2022/03/20 05:17:06;;;;;;;21.95;14.57;;;3.40;84.60;;;;;;6073259;23;103410;-73
2022/03/20 05:19:37;;;;;;;21.17;14.32;;;3.40;84.70;;;;;;6097002;23;101531;-72
2022/03/20 05:22:06;;;;;;;17.50;12.43;;;3.40;84.80;;;;;;6097540;23;99144;-72
2022/03/20 05:24:35;;;;;;;22.58;14.38;;;3.40;84.50;;;;;;6123992;23;98490;-72
2022/03/20 05:27:03;;;;;;;22.38;15.35;;;3.40;84.50;;;;;;6123193;23;107416;-72
2022/03/20 05:29:31;;;;;;;19.88;14.02;;;3.30;84.30;;;;;;6097412;23;99110;-72
2022/03/20 05:32:00;;;;;;;21.67;15.85;;;3.30;84.40;;;;;;6123959;23;98455;-72
2022/03/20 05:34:28;;;;;;;19.77;14.55;;;3.30;84.30;;;;;;6123794;23;98538;-72
2022/03/20 05:36:58;;;;;;;17.55;12.82;;;3.40;84.40;;;;;;6097047;23;101826;-72
2022/03/20 05:39:25;;;;;;;20.92;15.57;;;3.30;84.30;;;;;;6097351;23;99028;-73
2022/03/20 05:41:53;;;;;;;21.60;14.52;;;3.30;84.00;;;;;;6124032;23;98369;-73
2022/03/20 05:44:22;;;;;;;20.38;14.50;;;3.40;83.90;;;;;;6097346;23;98923;-72
2022/03/20 05:46:51;;;;;;;20.95;13.27;;;3.40;83.90;;;;;;6096737;23;100790;-72
2022/03/20 05:49:19;;;;;;;22.27;15.50;;;3.40;83.80;;;;;;6123129;23;99823;-72
2022/03/20 05:51:47;;;;;;;20.05;15.45;;;3.30;83.80;;;;;;6097062;23;101468;-72
2022/03/20 05:54:15;;;;;;;19.15;12.98;;;3.30;83.70;;;;;;6096935;23;98478;-73
2022/03/20 05:59:28;;;;;;;25.33;16.33;;;3.30;83.80;;;;;;6123161;23;98982;-73
2022/03/20 06:01:56;;;;;;;21.88;15.25;;;3.40;83.60;;;;;;6097516;23;98583;-72
2022/03/20 06:04:23;;;;;;;19.75;14.25;;;3.40;83.40;;;;;;6121987;23;97767;-72
2022/03/20 06:06:50;;;;;;;18.55;14.13;;;3.50;83.20;;;;;;6096664;23;99363;-72
2022/03/20 06:09:18;;;;;;;23.35;16.33;;;3.60;82.60;;;;;;6096865;23;98485;-72
2022/03/20 06:11:45;;;;;;;22.50;17.08;;;3.80;82.20;;;;;;6096654;23;100120;-72
2022/03/20 06:14:12;;;;;;;21.27;16.50;;;3.90;81.70;;;;;;6095430;23;98573;-70
2022/03/20 06:16:39;;;;;;;24.63;16.95;;;4.00;81.10;;;;;;6094547;23;101919;-70
2022/03/20 06:19:07;;;;;;;22.25;14.77;;;4.10;80.50;;;;;;6121157;23;99120;-70
2022/03/20 06:21:34;;;;;;;18.45;12.43;;;4.10;80.30;;;;;;6093899;23;107618;-70
2022/03/20 06:24:02;;;;;;;22.52;15.63;;;4.10;80.30;;;;;;6095632;23;98489;-70
2022/03/20 06:26:29;;;;;;;22.30;15.80;;;4.10;80.00;;;;;;6094979;23;99575;-70
2022/03/20 06:28:56;;;;;;;20.17;14.15;;;4.20;79.70;;;;;;6121565;23;99101;-70
2022/03/20 06:31:23;;;;;;;22.10;15.52;;;4.30;79.70;;;;;;6094648;23;98905;-70
2022/03/20 06:33:56;;;;;;;18.05;13.18;;;4.40;79.50;;;;;;6095086;23;98594;-71
2022/03/20 06:36:23;;;;;;;20.48;15.77;;;4.40;78.70;;;;;;6120328;23;100035;-70
2022/03/20 06:38:50;;;;;;;20.15;15.13;;;4.60;78.60;;;;;;6070037;23;102212;-70
2022/03/20 06:41:20;;;;;;;20.13;15.10;;;4.60;77.90;;;;;;6121348;23;98886;-70
2022/03/20 06:43:47;;;;;;;20.52;15.60;;;4.70;77.50;;;;;;6094697;23;98536;-70
2022/03/20 06:46:15;;;;;;;20.73;16.23;;;4.90;77.10;;;;;;6094645;23;99196;-70
2022/03/20 06:48:57;;;;;;;22.63;17.95;;;5.00;76.40;;;;;;6121168;23;98922;-70
2022/03/20 06:51:24;;;;;;;20.52;16.63;;;5.20;76.10;;;;;;6094918;23;98516;-70
2022/03/20 06:53:52;;;;;;;20.65;15.82;;;5.30;75.10;;;;;;6070939;23;98251;-70
2022/03/20 06:56:19;;;;;;;18.48;11.88;;;5.30;74.60;;;;;;6120664;23;99351;-70
2022/03/20 06:58:46;;;;;;;21.20;15.80;;;5.30;74.40;;;;;;6120997;23;98937;-70
2022/03/20 07:01:13;;;;;;;19.27;15.48;;;5.30;74.70;;;;;;6094290;23;99698;-70
2022/03/20 07:03:40;;;;;;;17.75;14.63;;;5.40;74.60;;;;;;6121227;23;98426;-70
2022/03/20 07:06:07;;;;;;;20.38;14.93;;;5.50;73.90;;;;;;6094869;23;99331;-70
2022/03/20 07:08:34;;;;;;;21.38;15.20;;;5.60;73.90;;;;;;6094067;23;101548;-71
2022/03/20 07:11:01;;;;;;;22.40;15.85;;;5.70;72.80;;;;;;6095255;23;98556;-70
2022/03/20 07:16:14;;;;;;;17.40;14.45;;;5.80;72.30;;;;;;6073937;23;101942;-70
2022/03/20 07:18:42;;;;;;;23.02;15.90;;;5.70;72.20;;;;;;6095038;23;98702;-71
2022/03/20 07:21:09;;;;;;;21.80;16.17;;;5.80;72.00;;;;;;6095173;23;98620;-70
2022/03/20 07:23:37;;;;;;;18.33;13.10;;;6.00;71.70;;;;;;6121171;23;98614;-71
2022/03/20 07:31:36;;;;;;;20.48;15.60;;;6.40;70.20;;;;;;6120936;23;98432;-71
2022/03/20 07:34:03;;;;;;;18.77;15.52;;;6.50;69.60;;;;;;6095258;23;98553;-71
2022/03/20 07:36:30;;;;;;;20.67;16.48;;;6.70;69.10;;;;;;6094470;23;99228;-70
2022/03/20 07:38:57;;;;;;;21.45;15.35;;;6.70;68.30;;;;;;6069302;23;114712;-71
2022/03/20 07:41:23;;;;;;;22.27;15.60;;;6.90;68.00;;;;;;6120954;23;98370;-71
2022/03/20 07:43:51;;;;;;;21.50;15.93;;;6.90;68.00;;;;;;6095120;23;97788;-71
2022/03/20 07:46:18;;;;;;;21.27;16.10;;;7.00;66.90;;;;;;6069531;23;101916;-70
2022/03/20 07:48:45;;;;;;;18.80;15.95;;;7.20;66.20;;;;;;6120554;23;98869;-71
2022/03/20 07:51:16;;;;;;;19.70;16.40;;;7.30;65.40;;;;;;6070015;23;99232;-71
2022/03/20 07:53:45;;;;;;;20.35;17.10;;;7.50;64.80;;;;;;6121046;23;98456;-71
2022/03/20 07:56:12;;;;;;;20.33;17.20;;;7.70;64.70;;;;;;6094464;23;99147;-70
2022/03/20 07:58:39;;;;;;;20.45;17.42;;;7.90;63.30;;;;;;6120538;23;98921;-71
2022/03/20 08:01:06;;;;;;;19.17;17.20;;;8.30;63.10;;;;;;6094569;23;98483;-71
2022/03/20 08:03:33;;;;;;;19.23;17.23;;;8.40;61.30;;;;;;6094479;23;98891;-71
2022/03/20 08:06:00;;;;;;;20.88;18.17;;;8.60;60.60;;;;;;6094574;23;99109;-71
2022/03/20 08:08:27;;;;;;;20.48;17.88;;;8.80;60.60;;;;;;6094718;23;99107;-71
2022/03/20 08:10:55;;;;;;;20.77;18.85;;;9.20;60.40;;;;;;6121034;23;98380;-71
2022/03/20 08:13:22;;;;;;;25.08;22.77;;;9.30;59.10;;;;;;6121142;23;98817;-71
2022/03/20 08:15:49;;;;;;;30.20;27.13;;;9.30;57.10;;;;;;6093738;23;99907;-71
2022/03/20 08:18:16;;;;;;;23.98;21.67;;;9.50;57.30;;;;;;6069619;23;102266;-71
2022/03/20 08:20:44;;;;;;;23.73;21.42;;;9.50;56.60;;;;;;6094565;23;98766;-71
2022/03/20 08:23:11;;;;;;;20.92;18.90;;;9.90;55.80;;;;;;6121164;23;98446;-71
2022/03/20 08:25:38;;;;;;;23.40;20.95;;;9.70;54.40;;;;;;6120399;23;99335;-71
2022/03/20 08:28:07;;;;;;;22.08;19.30;;;9.50;55.20;;;;;;6093878;23;101496;-71
2022/03/20 08:30:34;;;;;;;22.38;20.08;;;9.50;55.40;;;;;;6093915;23;98556;-71
2022/03/20 08:33:01;;;;;;;20.73;18.67;;;9.60;55.60;;;;;;6121230;23;97732;-71
2022/03/20 08:35:28;;;;;;;20.05;14.80;;;9.40;54.40;;;;;;6094445;23;99194;-71
2022/03/20 08:37:55;;;;;;;19.20;16.65;;;9.40;54.90;;;;;;6093640;23;99160;-71
2022/03/20 08:40:24;;;;;;;25.35;19.27;;;9.40;55.00;;;;;;6120497;23;99274;-71
2022/03/20 08:42:53;;;;;;;23.92;17.33;;;9.40;55.20;;;;;;6120761;23;98971;-71
2022/03/20 08:45:25;;;;;;;22.80;18.48;;;9.20;55.20;;;;;;6093996;23;99300;-71
2022/03/20 08:47:52;;;;;;;22.83;17.60;;;9.10;54.90;;;;;;6120395;23;98970;-71
2022/03/20 08:50:19;;;;;;;23.63;19.25;;;8.80;55.40;;;;;;6120732;23;98542;-71
2022/03/20 08:52:47;;;;;;;23.17;18.17;;;8.60;55.90;;;;;;6120049;23;102066;-71
2022/03/20 08:55:15;;;;;;;23.90;17.30;;;8.60;56.60;;;;;;6120377;23;99209;-71
2022/03/20 08:57:54;;;;;;;22.83;16.08;;;8.50;57.40;;;;;;6093899;23;99199;-70
2022/03/20 09:00:23;;;;;;;23.45;16.48;;;8.40;56.70;;;;;;6120857;23;98474;-71
2022/03/20 09:02:51;;;;;;;24.30;17.83;;;8.40;57.30;;;;;;6094245;23;98607;-70
2022/03/20 09:05:19;;;;;;;23.45;17.60;;;8.30;57.60;;;;;;6119900;23;100053;-70
2022/03/20 09:07:48;;;;;;;21.45;17.83;;;8.30;58.10;;;;;;6119833;23;99849;-71
2022/03/20 09:10:16;;;;;;;23.08;16.90;;;8.30;57.00;;;;;;6120559;23;98381;-71
2022/03/20 09:12:44;;;;;;;22.23;16.77;;;8.20;56.80;;;;;;6094474;23;98713;-71
2022/03/20 09:15:13;;;;;;;22.25;17.55;;;8.20;57.60;;;;;;6120161;23;99369;-70
2022/03/20 09:20:34;;;;;;;21.90;17.17;;;8.20;57.60;;;;;;6120541;23;98595;-71
2022/03/20 09:23:02;;;;;;;23.05;18.85;;;8.30;57.00;;;;;;6120965;23;97777;-70
2022/03/20 09:25:29;;;;;;;23.20;16.95;;;8.30;56.50;;;;;;6119539;23;112768;-71
2022/03/20 09:28:02;;;;;;;26.70;19.15;;;8.30;57.10;;;;;;6093279;23;101596;-71
2022/03/20 09:30:29;;;;;;;22.77;16.75;;;8.40;56.90;;;;;;6069208;23;99312;-71
2022/03/20 09:32:57;;;;;;;24.55;18.33;;;8.40;56.70;;;;;;6120273;23;98462;-71
2022/03/20 09:35:24;;;;;;;23.77;19.13;;;8.50;56.30;;;;;;6093728;23;99150;-71
2022/03/20 09:37:51;;;;;;;21.67;16.85;;;8.50;56.20;;;;;;6093313;23;99024;-71
2022/03/20 09:40:22;;;;;;;24.02;19.05;;;8.60;56.00;;;;;;6093517;23;98512;-71
2022/03/20 09:42:49;;;;;;;22.60;17.67;;;8.70;55.60;;;;;;6120262;23;98912;-71
2022/03/20 09:45:18;;;;;;;18.60;15.50;;;8.70;56.00;;;;;;6119080;23;110105;-70
2022/03/20 09:47:45;;;;;;;22.52;17.23;;;8.80;55.10;;;;;;6120265;23;98972;-71
2022/03/20 09:50:13;;;;;;;25.95;19.80;;;8.90;54.40;;;;;;6121515;23;98557;-71
2022/03/20 09:52:41;;;;;;;21.98;19.25;;;8.90;53.70;;;;;;6095237;23;98467;-70
2022/03/20 09:55:10;;;;;;;25.20;18.30;;;9.00;53.90;;;;;;6120761;23;99918;-71
2022/03/20 09:57:36;;;;;;;27.05;18.08;;;9.20;54.30;;;;;;6094858;23;99616;-70
2022/03/20 10:00:10;;;;;;;26.05;19.80;;;9.30;54.10;;;;;;6094704;23;98419;-71
2022/03/20 10:02:38;;;;;;;27.67;20.00;;;9.40;52.20;;;;;;6121803;23;98499;-71
2022/03/20 10:05:08;;;;;;;23.27;20.00;;;9.40;52.30;;;;;;6094849;23;99143;-71
2022/03/20 10:07:43;;;;;;;22.13;17.77;;;9.50;52.60;;;;;;6094262;23;100813;-71
2022/03/20 10:10:22;;;;;;;23.05;18.52;;;9.60;52.20;;;;;;6095537;23;98538;-73
2022/03/20 10:12:53;;;;;;;23.50;18.15;;;9.70;52.10;;;;;;6121783;23;97724;-73
2022/03/20 10:15:39;;;;;;;24.42;19.98;;;9.70;51.50;;;;;;6095078;23;99036;-73
2022/03/20 10:18:15;;;;;;;26.60;19.17;;;9.70;50.20;;;;;;6094942;23;99033;-73
2022/03/20 10:20:46;;;;;;;22.45;16.88;;;9.70;50.70;;;;;;6121210;23;99243;-73
2022/03/20 10:23:33;;;;;;;25.35;18.08;;;9.70;51.40;;;;;;6121693;23;98407;-73
2022/03/20 10:26:05;;;;;;;26.25;19.88;;;9.80;50.90;;;;;;6121004;23;99224;-73
2022/03/20 10:28:48;;;;;;;23.25;18.40;;;9.80;50.90;;;;;;6121456;23;99066;-73
2022/03/20 10:31:20;;;;;;;23.83;18.75;;;9.90;50.20;;;;;;6121539;23;98820;-73
2022/03/20 10:34:01;;;;;;;24.85;19.38;;;9.90;50.10;;;;;;6071096;23;98565;-73
2022/03/20 10:36:28;;;;;;;25.60;20.60;;;9.90;50.00;;;;;;6094417;23;100973;-73
2022/03/20 10:38:55;;;;;;;24.88;20.50;;;9.90;50.10;;;;;;6095626;23;99552;-73
2022/03/20 10:41:32;;;;;;;25.80;21.20;;;9.90;50.20;;;;;;6094789;23;98464;-73
2022/03/20 10:44:21;;;;;;;25.23;19.50;;;10.00;49.90;;;;;;6121968;23;98624;-73
2022/03/20 10:47:00;;;;;;;24.55;19.05;;;10.00;49.80;;;;;;6070266;23;102579;-73
2022/03/20 10:49:28;;;;;;;20.63;16.65;;;10.20;50.60;;;;;;6121309;23;99728;-73
2022/03/20 10:52:07;;;;;;;24.77;18.08;;;10.20;50.30;;;;;;6094458;23;98483;-73
2022/03/20 10:55:04;;;;;;;24.92;19.52;;;10.30;49.70;;;;;;6095179;23;98520;-73
2022/03/20 10:57:32;;;;;;;24.25;20.50;;;10.40;50.20;;;;;;6094793;23;101999;-73
2022/03/20 11:00:05;;;;;;;26.67;20.38;;;10.50;48.90;;;;;;6069364;23;101569;-73
2022/03/20 11:02:37;;;;;;;24.77;18.77;;;10.50;49.00;;;;;;6121652;23;98425;-73
2022/03/20 11:05:04;;;;;;;25.25;19.50;;;10.50;48.80;;;;;;6122029;23;98227;-73
2022/03/20 11:07:31;;;;;;;23.58;17.67;;;10.60;49.40;;;;;;6069966;23;101901;-73
2022/03/20 11:10:00;;;;;;;25.08;18.58;;;10.60;48.30;;;;;;6093875;23;113956;-73
2022/03/20 11:12:31;;;;;;;27.48;20.67;;;10.70;48.80;;;;;;6121109;23;99177;-73
2022/03/20 11:15:02;;;;;;;26.65;20.05;;;10.80;49.30;;;;;;6121487;23;98439;-73
2022/03/20 11:17:44;;;;;;;25.48;19.33;;;10.80;48.80;;;;;;6070359;23;101824;-73
2022/03/20 11:20:17;;;;;;;26.98;19.92;;;10.90;48.00;;;;;;6094432;23;101688;-73
2022/03/20 11:22:50;;;;;;;25.75;19.00;;;11.00;48.30;;;;;;6121758;23;98851;-73
2022/03/20 11:25:21;;;;;;;26.80;21.50;;;11.00;47.30;;;;;;6095122;23;98501;-73
2022/03/20 11:28:01;;;;;;;29.45;21.90;;;11.10;47.60;;;;;;6070299;23;101683;-73
2022/03/20 11:30:31;;;;;;;22.45;19.20;;;11.20;48.20;;;;;;6121647;23;98907;-73
2022/03/20 11:33:02;;;;;;;28.48;20.08;;;11.20;48.20;;;;;;6121280;23;98865;-73
2022/03/20 11:35:34;;;;;;;26.95;20.73;;;11.40;47.80;;;;;;6095986;23;98516;-73
2022/03/20 11:38:22;;;;;;;25.88;18.90;;;11.40;47.10;;;;;;6093149;23;102404;-73
2022/03/20 11:41:20;;;;;;;24.75;18.42;;;11.30;47.00;;;;;;6120985;23;99762;-73
2022/03/20 11:44:21;;;;;;;27.77;20.17;;;11.40;47.40;;;;;;6094504;23;98411;-73
2022/03/20 11:47:20;;;;;;;23.92;19.50;;;11.50;47.10;;;;;;6112042;23;98565;-73
2022/03/20 11:50:05;;;;;;;25.40;19.17;;;11.50;46.70;;;;;;6069997;23;101753;-73
2022/03/20 11:52:49;;;;;;;25.48;19.88;;;11.60;46.70;;;;;;6121002;23;99105;-73
2022/03/20 11:55:31;;;;;;;22.67;19.45;;;11.60;45.60;;;;;;6095148;23;98458;-73
2022/03/20 11:58:05;;;;;;;27.50;20.92;;;11.60;46.50;;;;;;6121723;23;97776;-73
2022/03/20 12:00:36;;;;;;;21.65;16.83;;;11.60;46.00;;;;;;6094573;23;101919;-73
2022/03/20 12:03:15;;;;;;;27.10;19.45;;;11.60;46.50;;;;;;6093976;23;102131;-73
2022/03/20 12:06:07;;;;;;;26.70;20.02;;;11.60;47.10;;;;;;6094457;23;99590;-73
2022/03/20 12:08:41;;;;;;;24.48;20.15;;;11.60;46.60;;;;;;6121383;23;98450;-73
2022/03/20 12:11:18;;;;;;;25.42;19.05;;;11.40;45.50;;;;;;6119792;23;99308;-73
2022/03/20 12:14:08;;;;;;;24.48;19.00;;;11.50;46.70;;;;;;6120930;23;99805;-73
2022/03/20 12:16:44;;;;;;;25.42;19.23;;;11.60;46.60;;;;;;6060875;23;98611;-73
2022/03/20 12:19:13;;;;;;;23.05;18.20;;;11.70;47.00;;;;;;6095045;23;98414;-73
2022/03/20 12:21:55;;;;;;;25.15;20.63;;;11.70;46.00;;;;;;6119124;23;120785;-73
2022/03/20 12:24:58;;;;;;;25.42;20.90;;;11.80;45.80;;;;;;6095085;23;98989;-73
2022/03/20 12:27:26;;;;;;;27.02;21.02;;;11.80;45.70;;;;;;6120590;23;98730;-73
2022/03/20 12:30:12;;;;;;;26.52;20.63;;;11.70;45.70;;;;;;6094374;23;98542;-73
2022/03/20 12:32:49;;;;;;;26.70;20.30;;;11.90;45.80;;;;;;6093676;23;102581;-73
2022/03/20 12:35:21;;;;;;;27.65;20.30;;;12.00;46.50;;;;;;6069435;23;102950;-74
2022/03/20 12:37:49;;;;;;;26.05;20.55;;;12.00;45.70;;;;;;6070302;23;98908;-73
2022/03/20 12:40:30;;;;;;;27.95;20.52;;;12.10;45.10;;;;;;6094699;23;98509;-73
2022/03/20 12:43:14;;;;;;;25.70;19.98;;;12.30;45.30;;;;;;6097396;23;99444;-73
2022/03/20 12:45:44;;;;;;;24.08;18.50;;;12.40;44.90;;;;;;6120263;23;99039;-73
2022/03/20 12:48:14;;;;;;;26.15;20.15;;;12.60;44.90;;;;;;6094367;23;98985;-73
2022/03/20 12:50:46;;;;;;;26.50;19.85;;;12.70;45.20;;;;;;6121749;23;97825;-73
2022/03/20 12:53:21;;;;;;;27.38;21.25;;;12.80;44.80;;;;;;6120538;23;99215;-73
2022/03/20 12:56:00;;;;;;;25.38;20.13;;;13.00;44.30;;;;;;6094776;23;99181;-73
2022/03/20 12:58:28;;;;;;;30.33;21.33;;;13.10;44.50;;;;;;6120156;23;99128;-74
2022/03/20 13:00:55;;;;;;;24.42;20.90;;;13.10;43.50;;;;;;6094885;23;98999;-73
2022/03/20 13:03:26;;;;;;;26.63;20.23;;;13.00;43.10;;;;;;6119533;23;113546;-73
2022/03/20 13:05:58;;;;;;;25.10;18.58;;;12.90;44.10;;;;;;6094404;23;100397;-73
2022/03/20 13:08:26;;;;;;;24.95;19.85;;;12.90;44.30;;;;;;6069545;23;98457;-74
2022/03/20 13:10:55;;;;;;;25.52;19.70;;;12.80;44.50;;;;;;6094254;23;99030;-73
2022/03/20 13:13:33;;;;;;;25.27;20.85;;;12.90;44.20;;;;;;6119832;23;99158;-73
2022/03/20 13:16:13;;;;;;;26.05;20.20;;;13.00;43.90;;;;;;6071086;23;101934;-73
2022/03/20 13:18:40;;;;;;;25.20;20.45;;;13.20;43.90;;;;;;6070024;23;98541;-73
2022/03/20 13:21:07;;;;;;;28.10;21.60;;;13.40;42.90;;;;;;6120548;23;98526;-73
2022/03/20 13:23:35;;;;;;;26.30;20.27;;;13.70;42.50;;;;;;6093987;23;102684;-73
2022/03/20 13:26:02;;;;;;;25.95;20.75;;;13.70;42.30;;;;;;6095298;23;99639;-73
2022/03/20 13:28:33;;;;;;;27.55;22.33;;;13.70;42.10;;;;;;6121784;23;98374;-73